Time;durP1;ratioP1;P1;durP2;ratioP2;P2;SDS_P1;SDS_P2;PMS_P1;PMS_P2;Temp;Humidity;BMP_temperature;BMP_pressure;BME280_temperature;BME280_humidity;BME280_pressure;Samples;Min_cycle;Max_cycle;Signal;HPM_P1;HPM_P2
2022/05/28 00:00:10;;;;;;;6.33;2.10;;;14.30;58.70;;;;;;5025500;28;20460;-72
2022/05/28 00:02:55;;;;;;;12.83;2.13;;;14.20;60.20;;;;;;5026084;28;20813;-72
2022/05/28 00:05:42;;;;;;;11.03;3.33;;;14.10;60.10;;;;;;5026717;28;20427;-71
2022/05/28 00:08:28;;;;;;;12.57;2.53;;;13.90;62.30;;;;;;5028637;28;20472;-71
2022/05/28 00:11:18;;;;;;;15.53;2.30;;;13.80;63.50;;;;;;5021704;28;20447;-72
2022/05/28 00:14:06;;;;;;;6.97;2.33;;;13.60;65.60;;;;;;5030770;28;20411;-72
2022/05/28 00:16:52;;;;;;;7.40;2.50;;;13.50;67.80;;;;;;5031476;28;20588;-72
2022/05/28 00:19:37;;;;;;;7.17;1.90;;;13.30;69.40;;;;;;5024234;28;20801;-72
2022/05/28 00:22:23;;;;;;;7.20;2.10;;;13.10;70.60;;;;;;5025502;28;20404;-69
2022/05/28 00:25:11;;;;;;;4.93;1.40;;;12.90;71.30;;;;;;5026157;28;20503;-69
2022/05/28 00:27:56;;;;;;;6.33;1.80;;;12.80;72.90;;;;;;5024735;28;20906;-70
2022/05/28 00:30:43;;;;;;;8.83;2.20;;;12.70;74.40;;;;;;5026153;28;20615;-70
2022/05/28 00:33:30;;;;;;;15.23;3.00;;;12.60;76.10;;;;;;5028970;28;20419;-69
2022/05/28 00:36:16;;;;;;;5.57;2.30;;;12.50;77.30;;;;;;5029128;28;21284;-69
2022/05/28 00:39:03;;;;;;;11.20;2.50;;;12.40;78.10;;;;;;5028208;28;20472;-70
2022/05/28 00:41:49;;;;;;;10.37;2.07;;;12.20;80.30;;;;;;5029501;28;20554;-69
2022/05/28 00:44:35;;;;;;;5.83;1.57;;;12.20;82.00;;;;;;5030506;28;20438;-69
2022/05/28 00:47:22;;;;;;;7.20;1.77;;;12.20;82.40;;;;;;5024655;28;20586;-69
2022/05/28 00:50:10;;;;;;;7.37;2.07;;;12.10;83.90;;;;;;5021418;28;20599;-69
2022/05/28 00:52:55;;;;;;;7.10;2.00;;;12.10;84.40;;;;;;5028894;28;20415;-69
2022/05/28 00:55:41;;;;;;;11.30;2.00;;;12.10;84.90;;;;;;5027996;28;20511;-69
2022/05/28 00:58:27;;;;;;;10.07;2.20;;;12.00;85.40;;;;;;5026719;28;21006;-69
2022/05/28 01:01:13;;;;;;;27.90;2.40;;;11.90;86.00;;;;;;5022022;28;20440;-69
2022/05/28 01:04:08;;;;;;;8.30;2.80;;;11.70;85.70;;;;;;5024085;28;20423;-69
2022/05/28 01:07:00;;;;;;;6.60;1.80;;;11.70;86.70;;;;;;5024793;28;20960;-69
2022/05/28 01:09:52;;;;;;;6.57;2.03;;;11.80;86.50;;;;;;5023376;28;20478;-70
2022/05/28 01:12:46;;;;;;;8.90;1.70;;;11.70;86.10;;;;;;5028007;28;20464;-70
2022/05/28 01:15:36;;;;;;;6.17;1.90;;;11.60;86.90;;;;;;5025306;28;20578;-69
2022/05/28 01:18:29;;;;;;;8.03;2.33;;;11.50;87.50;;;;;;5028066;28;20492;-69
2022/05/28 01:21:35;;;;;;;5.63;1.77;;;11.40;87.50;;;;;;5024265;28;20594;-70
2022/05/28 01:24:29;;;;;;;12.80;2.20;;;11.30;87.80;;;;;;5026021;28;20474;-70
2022/05/28 01:27:19;;;;;;;6.83;2.03;;;11.30;88.70;;;;;;5023162;28;20443;-70
2022/05/28 01:30:08;;;;;;;11.40;2.00;;;11.10;89.90;;;;;;5024755;28;20566;-70
2022/05/28 01:32:57;;;;;;;6.50;1.70;;;11.00;90.80;;;;;;5025165;28;20483;-70
2022/05/28 01:35:45;;;;;;;9.80;2.13;;;10.90;90.90;;;;;;5023878;28;20402;-69
2022/05/28 01:38:32;;;;;;;6.93;1.90;;;10.80;91.50;;;;;;5022991;28;20602;-70
2022/05/28 01:41:18;;;;;;;5.30;2.00;;;10.70;92.40;;;;;;5028659;28;20449;-69
2022/05/28 01:44:08;;;;;;;8.70;2.40;;;10.80;92.50;;;;;;5029896;28;20925;-69
2022/05/28 01:46:55;;;;;;;5.70;2.40;;;10.80;92.30;;;;;;5026458;28;20432;-71
2022/05/28 01:49:41;;;;;;;12.53;2.23;;;11.00;91.80;;;;;;5023313;28;20448;-72
2022/05/28 01:52:28;;;;;;;5.57;1.83;;;11.00;91.90;;;;;;5023638;28;20442;-72
2022/05/28 01:55:16;;;;;;;9.47;2.97;;;11.00;91.20;;;;;;5024861;28;20948;-71
2022/05/28 01:58:02;;;;;;;5.47;2.07;;;11.10;90.90;;;;;;5027855;28;20911;-71
2022/05/28 02:00:49;;;;;;;6.17;1.93;;;11.10;90.90;;;;;;5024811;28;20411;-71
2022/05/28 02:03:39;;;;;;;10.53;2.40;;;10.90;91.30;;;;;;5028775;28;20525;-71
2022/05/28 02:06:25;;;;;;;6.93;2.00;;;10.80;91.30;;;;;;5025575;28;21125;-71
2022/05/28 02:09:13;;;;;;;5.70;1.90;;;10.70;91.50;;;;;;5021001;28;20468;-71
2022/05/28 02:12:08;;;;;;;5.23;1.70;;;10.60;91.70;;;;;;5026984;28;20446;-71
2022/05/28 02:15:15;;;;;;;4.43;1.90;;;10.40;92.10;;;;;;5026591;28;20840;-71
2022/05/28 02:18:15;;;;;;;12.33;2.07;;;10.30;92.60;;;;;;5023842;28;20458;-71
2022/05/28 02:21:06;;;;;;;12.77;2.80;;;10.30;92.30;;;;;;5024649;28;20415;-71
2022/05/28 02:23:56;;;;;;;9.87;2.30;;;10.40;92.70;;;;;;5026826;28;20571;-71
2022/05/28 02:26:47;;;;;;;10.67;2.40;;;10.40;92.70;;;;;;5029032;28;20789;-71
2022/05/28 02:29:34;;;;;;;5.17;2.10;;;10.20;92.70;;;;;;5017592;28;20824;-71
2022/05/28 02:32:22;;;;;;;4.90;2.00;;;9.90;93.70;;;;;;5024487;28;20458;-71
2022/05/28 02:35:11;;;;;;;10.00;2.40;;;9.90;94.50;;;;;;5027582;28;20443;-71
2022/05/28 02:37:57;;;;;;;5.03;1.67;;;9.60;96.90;;;;;;5026761;28;20479;-71
2022/05/28 02:40:42;;;;;;;6.63;1.83;;;9.40;98.50;;;;;;5027493;28;20443;-71
2022/05/28 02:43:29;;;;;;;5.53;1.87;;;9.30;99.90;;;;;;5029739;28;20419;-72
2022/05/28 02:46:15;;;;;;;7.83;2.00;;;9.20;99.90;;;;;;5026512;28;20623;-71
2022/05/28 02:49:01;;;;;;;4.47;1.80;;;9.20;99.90;;;;;;5027322;28;20494;-71
2022/05/28 02:51:48;;;;;;;3.67;1.60;;;9.30;99.90;;;;;;5031554;28;20442;-71
2022/05/28 02:54:34;;;;;;;4.97;1.60;;;9.50;99.90;;;;;;5031925;28;20526;-71
2022/05/28 02:57:20;;;;;;;15.40;3.00;;;9.50;99.90;;;;;;5029121;28;20970;-71
2022/05/28 03:00:07;;;;;;;2.87;1.60;;;9.70;99.90;;;;;;5029230;28;20932;-71
2022/05/28 03:02:53;;;;;;;12.57;2.77;;;9.50;99.90;;;;;;5026044;28;20430;-72
2022/05/28 03:05:39;;;;;;;4.40;1.90;;;9.50;99.90;;;;;;5028390;28;20415;-72
2022/05/28 03:08:26;;;;;;;6.33;2.30;;;9.40;99.90;;;;;;5025037;28;20563;-72
2022/05/28 03:11:12;;;;;;;5.10;1.63;;;9.30;99.90;;;;;;5026489;28;20464;-72
2022/05/28 03:13:58;;;;;;;5.10;1.73;;;9.30;99.90;;;;;;5027392;28;20467;-72
2022/05/28 03:16:43;;;;;;;6.50;2.60;;;9.30;99.90;;;;;;5028487;28;20485;-72
2022/05/28 03:19:29;;;;;;;7.90;1.97;;;9.30;99.90;;;;;;5029249;28;20684;-71
2022/05/28 03:22:14;;;;;;;6.10;2.63;;;9.30;99.90;;;;;;5028203;28;20895;-72
2022/05/28 03:25:01;;;;;;;5.63;1.70;;;9.40;99.90;;;;;;5028421;28;20427;-72
2022/05/28 03:27:47;;;;;;;9.83;2.03;;;9.40;99.90;;;;;;5024037;28;20454;-72
2022/05/28 03:30:33;;;;;;;3.53;1.83;;;9.30;99.90;;;;;;5022833;28;20403;-72
2022/05/28 03:33:18;;;;;;;4.57;1.70;;;9.20;99.90;;;;;;5029020;28;20450;-72
2022/05/28 03:36:05;;;;;;;8.50;1.70;;;9.30;99.90;;;;;;5027137;28;20457;-71
2022/05/28 03:38:51;;;;;;;5.33;1.47;;;9.20;99.90;;;;;;5027946;28;20605;-71
2022/05/28 03:41:38;;;;;;;7.37;2.37;;;9.10;99.90;;;;;;5015413;28;20380;-72
2022/05/28 03:44:23;;;;;;;7.80;2.40;;;9.10;99.90;;;;;;5021780;28;20475;-72
2022/05/28 03:47:09;;;;;;;11.07;2.03;;;9.00;99.90;;;;;;5022567;28;20467;-72
2022/05/28 03:49:55;;;;;;;5.93;1.80;;;9.00;99.90;;;;;;5027927;28;20902;-72
2022/05/28 03:52:40;;;;;;;7.57;2.23;;;9.20;99.90;;;;;;5027002;28;20553;-72
2022/05/28 03:55:26;;;;;;;6.50;1.83;;;9.10;99.90;;;;;;5023579;28;20442;-72
2022/05/28 03:58:14;;;;;;;7.87;2.17;;;9.20;99.90;;;;;;5024993;28;20472;-71
2022/05/28 04:00:59;;;;;;;3.30;1.63;;;9.30;99.90;;;;;;5026422;28;20558;-72
2022/05/28 04:03:45;;;;;;;5.40;2.20;;;9.40;99.90;;;;;;5029862;28;20959;-72
2022/05/28 04:06:31;;;;;;;8.10;2.90;;;9.40;99.90;;;;;;5023353;28;20608;-72
2022/05/28 04:09:17;;;;;;;10.77;2.07;;;9.60;99.90;;;;;;5028931;28;20591;-72
2022/05/28 04:12:02;;;;;;;11.30;2.33;;;9.70;99.90;;;;;;5029505;28;20476;-71
2022/05/28 04:14:49;;;;;;;2.83;1.67;;;9.70;99.90;;;;;;5024838;28;20573;-72
2022/05/28 04:17:35;;;;;;;7.33;2.50;;;9.70;99.90;;;;;;5024375;28;20727;-72
2022/05/28 04:20:21;;;;;;;5.37;1.87;;;9.70;99.90;;;;;;5027493;28;20449;-71
2022/05/28 04:23:07;;;;;;;8.30;2.20;;;9.60;99.90;;;;;;5029359;28;20567;-72
2022/05/28 04:25:53;;;;;;;5.93;1.90;;;9.60;99.90;;;;;;5026502;28;20967;-71
2022/05/28 04:28:39;;;;;;;9.00;1.93;;;9.50;99.90;;;;;;5024901;28;20484;-72
2022/05/28 04:31:26;;;;;;;7.13;2.10;;;9.40;99.90;;;;;;5025671;28;20448;-72
2022/05/28 04:34:12;;;;;;;7.53;2.10;;;9.50;99.90;;;;;;5024511;28;20440;-72
2022/05/28 04:36:58;;;;;;;4.73;1.77;;;9.60;99.90;;;;;;5024801;28;20426;-72
2022/05/28 04:39:44;;;;;;;7.43;1.70;;;9.70;99.90;;;;;;5027782;28;20417;-72
2022/05/28 04:42:30;;;;;;;10.93;1.90;;;9.90;99.90;;;;;;5027496;28;20452;-72
2022/05/28 04:45:15;;;;;;;7.73;2.20;;;9.90;99.90;;;;;;5024504;28;20498;-72
2022/05/28 04:48:03;;;;;;;10.90;2.03;;;10.10;99.90;;;;;;5025437;28;20801;-72
2022/05/28 04:50:48;;;;;;;7.97;1.87;;;10.20;99.90;;;;;;5027136;28;20458;-72
2022/05/28 04:53:34;;;;;;;8.13;2.17;;;10.30;99.90;;;;;;5031264;28;20586;-72
2022/05/28 04:56:20;;;;;;;9.63;1.97;;;10.50;99.90;;;;;;5021293;28;20798;-72
2022/05/28 04:59:06;;;;;;;8.43;2.10;;;10.60;99.90;;;;;;5028559;28;20462;-72
2022/05/28 05:01:51;;;;;;;5.47;2.00;;;10.70;99.90;;;;;;5028979;28;20414;-72
2022/05/28 05:04:38;;;;;;;8.77;2.73;;;10.80;99.90;;;;;;5026320;28;21010;-72
2022/05/28 05:07:25;;;;;;;4.07;2.03;;;10.70;99.90;;;;;;5023312;28;20580;-71
2022/05/28 05:10:11;;;;;;;8.10;2.17;;;10.70;99.90;;;;;;5028663;28;20422;-72
2022/05/28 05:12:57;;;;;;;6.57;2.00;;;10.80;99.90;;;;;;5021479;28;20455;-72
2022/05/28 05:15:43;;;;;;;4.27;1.83;;;11.00;99.90;;;;;;5024898;28;20575;-72
2022/05/28 05:18:28;;;;;;;4.37;1.40;;;11.10;99.90;;;;;;5026811;28;20434;-71
2022/05/28 05:21:15;;;;;;;10.80;2.20;;;11.30;99.90;;;;;;5018892;28;20424;-72
2022/05/28 05:24:01;;;;;;;10.13;1.80;;;11.40;99.90;;;;;;5023500;28;20423;-72
2022/05/28 05:26:46;;;;;;;9.07;1.50;;;11.60;99.90;;;;;;5025701;28;20419;-71
2022/05/28 05:29:32;;;;;;;11.77;2.57;;;11.60;99.90;;;;;;5028845;28;20435;-71
2022/05/28 05:32:18;;;;;;;5.03;1.90;;;11.60;99.90;;;;;;5031094;28;21003;-71
2022/05/28 05:35:04;;;;;;;10.90;2.60;;;11.60;99.90;;;;;;5021743;28;20591;-71
2022/05/28 05:37:51;;;;;;;6.13;1.83;;;11.70;99.90;;;;;;5039247;22;20450;-74
2022/05/28 05:40:38;;;;;;;6.57;2.20;;;11.80;99.90;;;;;;5008704;28;20436;-74
2022/05/28 05:43:24;;;;;;;7.57;2.47;;;12.00;99.90;;;;;;5004188;28;20888;-75
2022/05/28 05:46:09;;;;;;;9.00;3.10;;;12.00;99.90;;;;;;5003175;28;20966;-75
2022/05/28 05:48:55;;;;;;;8.80;2.90;;;12.10;99.70;;;;;;5014377;28;20486;-74
2022/05/28 05:51:44;;;;;;;8.73;2.40;;;12.30;97.50;;;;;;5010350;28;20420;-75
2022/05/28 05:54:31;;;;;;;11.17;3.03;;;12.30;97.00;;;;;;5002332;28;20965;-75
2022/05/28 05:57:17;;;;;;;4.77;2.10;;;12.40;97.10;;;;;;5012353;28;20415;-75
2022/05/28 06:00:04;;;;;;;6.23;1.90;;;12.60;96.80;;;;;;5007573;28;20424;-75
2022/05/28 06:02:50;;;;;;;10.10;2.43;;;12.70;97.30;;;;;;5009507;28;20442;-75
2022/05/28 06:05:36;;;;;;;7.97;1.80;;;12.90;97.40;;;;;;5007487;28;20969;-75
2022/05/28 06:08:21;;;;;;;9.23;2.30;;;13.00;97.00;;;;;;5010493;28;20536;-75
2022/05/28 06:11:08;;;;;;;7.03;1.80;;;13.10;95.40;;;;;;5010124;28;20966;-75
2022/05/28 06:13:54;;;;;;;10.43;2.03;;;13.20;92.80;;;;;;5008416;28;20469;-75
2022/05/28 06:16:40;;;;;;;10.40;2.30;;;13.30;92.70;;;;;;5009782;28;20485;-75
2022/05/28 06:19:25;;;;;;;11.53;2.13;;;13.50;88.90;;;;;;5005301;28;20448;-74
2022/05/28 06:22:11;;;;;;;5.47;1.90;;;13.50;89.50;;;;;;5004819;28;20452;-74
2022/05/28 06:24:57;;;;;;;14.23;2.80;;;13.50;86.70;;;;;;5005910;28;20529;-74
2022/05/28 06:27:46;;;;;;;12.33;2.40;;;13.40;83.10;;;;;;5007463;28;20446;-75
2022/05/28 06:30:31;;;;;;;8.63;2.43;;;13.50;83.90;;;;;;5007249;28;20480;-74
2022/05/28 06:33:17;;;;;;;11.80;2.33;;;13.60;83.40;;;;;;5005893;28;20644;-75
2022/05/28 06:36:05;;;;;;;9.03;1.83;;;13.50;82.30;;;;;;5005804;28;20423;-75
2022/05/28 06:38:50;;;;;;;10.00;2.10;;;13.30;83.00;;;;;;5008297;28;20460;-75
2022/05/28 06:41:36;;;;;;;9.47;2.47;;;13.20;84.60;;;;;;5007034;28;21594;-74
2022/05/28 06:44:23;;;;;;;13.40;2.70;;;13.40;85.30;;;;;;4999055;28;20417;-74
2022/05/28 06:47:09;;;;;;;13.93;2.40;;;13.60;82.90;;;;;;5009918;28;21008;-75
2022/05/28 06:52:54;;;;;;;7.23;2.30;;;13.80;83.60;;;;;;5006480;28;21009;-74
2022/05/28 06:55:39;;;;;;;11.83;4.23;;;13.80;79.30;;;;;;5017563;28;20452;-75
2022/05/28 06:58:25;;;;;;;8.37;2.70;;;13.80;79.80;;;;;;5008672;28;20466;-75
2022/05/28 07:01:13;;;;;;;9.50;2.27;;;13.80;79.70;;;;;;5003721;28;20407;-75
2022/05/28 07:03:59;;;;;;;7.37;2.43;;;13.70;77.30;;;;;;5008236;28;20805;-75
2022/05/28 07:06:45;;;;;;;10.20;2.10;;;13.60;80.00;;;;;;5019381;28;20424;-75
2022/05/28 07:09:31;;;;;;;6.97;2.47;;;13.50;80.40;;;;;;5005878;28;20472;-75
2022/05/28 07:12:17;;;;;;;11.63;2.33;;;13.30;79.50;;;;;;5004051;28;20529;-75
2022/05/28 07:15:03;;;;;;;13.03;2.57;;;13.30;82.30;;;;;;4999153;28;20488;-75
2022/05/28 07:17:50;;;;;;;10.27;2.10;;;13.30;82.50;;;;;;5006209;28;20473;-75
2022/05/28 07:20:36;;;;;;;8.73;2.53;;;13.50;86.10;;;;;;5002102;28;20432;-75
2022/05/28 07:23:23;;;;;;;7.97;2.50;;;13.60;84.30;;;;;;5009890;28;20465;-75
2022/05/28 07:26:12;;;;;;;13.10;2.30;;;13.70;83.50;;;;;;5011564;28;20502;-75
2022/05/28 07:28:57;;;;;;;13.20;3.30;;;13.80;81.90;;;;;;5008938;28;20461;-75
2022/05/28 07:31:43;;;;;;;5.73;1.90;;;13.80;78.90;;;;;;4991698;28;20496;-74
2022/05/28 07:34:30;;;;;;;9.70;2.53;;;14.00;82.60;;;;;;5011643;28;20454;-74
2022/05/28 07:37:16;;;;;;;6.60;3.10;;;14.20;79.20;;;;;;5008005;28;20439;-75
2022/05/28 07:40:02;;;;;;;6.27;2.10;;;14.30;78.00;;;;;;5012315;28;20969;-75
2022/05/28 07:42:47;;;;;;;9.60;2.10;;;14.30;75.40;;;;;;5010742;28;20427;-74
2022/05/28 07:45:37;;;;;;;6.37;2.13;;;14.40;76.40;;;;;;5016886;28;20860;-76
2022/05/28 07:48:23;;;;;;;8.20;2.20;;;14.40;74.10;;;;;;5012365;28;20477;-75
2022/05/28 07:51:10;;;;;;;11.30;2.60;;;14.60;74.90;;;;;;5008131;28;20444;-75
2022/05/28 07:53:56;;;;;;;8.27;2.90;;;14.70;72.00;;;;;;5004750;28;20434;-74
2022/05/28 07:56:42;;;;;;;12.17;2.20;;;14.70;71.20;;;;;;5012281;28;20485;-75
2022/05/28 07:59:29;;;;;;;6.80;2.00;;;14.70;71.10;;;;;;5008991;28;20525;-76
2022/05/28 08:02:15;;;;;;;8.20;2.40;;;14.90;74.80;;;;;;5005006;28;20462;-75
2022/05/28 08:05:00;;;;;;;6.90;1.80;;;15.10;70.60;;;;;;5011655;28;20441;-75
2022/05/28 08:07:47;;;;;;;5.67;1.80;;;15.30;69.80;;;;;;5011971;28;20480;-75
2022/05/28 08:10:33;;;;;;;8.30;1.67;;;15.60;67.60;;;;;;5008760;28;20453;-76
2022/05/28 08:13:21;;;;;;;9.83;2.87;;;15.70;66.30;;;;;;5005178;28;20805;-76
2022/05/28 08:16:07;;;;;;;7.00;2.10;;;15.90;66.30;;;;;;5013415;28;20432;-76
2022/05/28 08:18:53;;;;;;;14.13;2.27;;;16.10;64.30;;;;;;5010828;28;20520;-76
2022/05/28 08:24:43;;;;;;;11.77;2.27;;;16.30;63.20;;;;;;5004064;28;20432;-76
2022/05/28 08:27:29;;;;;;;8.10;2.20;;;16.30;60.30;;;;;;5012407;28;20504;-74
2022/05/28 08:30:14;;;;;;;13.30;2.50;;;16.10;61.30;;;;;;5006487;28;20967;-75
2022/05/28 08:33:00;;;;;;;4.70;1.83;;;15.70;60.00;;;;;;5007194;28;20573;-75
2022/05/28 08:35:47;;;;;;;5.90;2.00;;;15.40;59.40;;;;;;5009880;28;20553;-75
2022/05/28 08:38:33;;;;;;;4.13;1.60;;;15.40;64.00;;;;;;5009561;28;20501;-76
2022/05/28 08:41:22;;;;;;;12.33;2.27;;;15.40;61.20;;;;;;5009466;28;20778;-76
2022/05/28 08:44:15;;;;;;;9.57;1.90;;;15.40;61.20;;;;;;5011355;28;20816;-76
2022/05/28 08:47:13;;;;;;;6.17;1.60;;;15.50;63.50;;;;;;5009504;28;20789;-76
2022/05/28 08:49:58;;;;;;;8.70;1.70;;;15.40;63.10;;;;;;5004299;28;20970;-75
2022/05/28 08:52:49;;;;;;;11.17;2.63;;;15.20;64.30;;;;;;5003566;28;20575;-75
2022/05/28 08:55:42;;;;;;;10.17;2.07;;;15.10;61.70;;;;;;5009432;28;20420;-75
2022/05/28 08:58:33;;;;;;;6.67;1.53;;;15.10;61.80;;;;;;5010961;28;20443;-75
2022/05/28 09:01:22;;;;;;;4.57;1.50;;;15.20;63.40;;;;;;5011849;28;20449;-75
2022/05/28 09:04:14;;;;;;;7.10;1.67;;;15.20;61.40;;;;;;4997194;28;20450;-76
2022/05/28 09:07:05;;;;;;;9.13;1.60;;;15.30;61.60;;;;;;4998855;28;20819;-75
2022/05/28 09:09:55;;;;;;;6.07;1.50;;;15.40;60.80;;;;;;5010716;28;20933;-75
2022/05/28 09:12:45;;;;;;;3.73;1.70;;;15.50;61.30;;;;;;5005283;28;20428;-76
2022/05/28 09:15:33;;;;;;;9.03;2.60;;;15.60;60.20;;;;;;5008779;28;20457;-74
2022/05/28 09:18:20;;;;;;;8.30;1.53;;;15.60;63.40;;;;;;5006989;28;20469;-75
2022/05/28 09:21:10;;;;;;;5.23;1.60;;;15.40;63.10;;;;;;5006939;28;20445;-75
2022/05/28 09:23:59;;;;;;;7.53;2.27;;;15.30;62.20;;;;;;5004430;28;20469;-74
2022/05/28 09:26:59;;;;;;;7.60;2.10;;;15.40;63.90;;;;;;5005383;28;21005;-74
2022/05/28 09:30:13;;;;;;;5.73;1.57;;;15.40;63.90;;;;;;5006311;28;20812;-75
2022/05/28 09:33:13;;;;;;;2.83;1.13;;;15.80;64.20;;;;;;5011136;28;20951;-75
2022/05/28 09:36:05;;;;;;;8.00;2.27;;;16.20;63.70;;;;;;5009271;28;20483;-75
2022/05/28 09:39:01;;;;;;;6.60;1.47;;;16.50;62.10;;;;;;5010986;28;21223;-76
2022/05/28 09:42:01;;;;;;;5.80;1.30;;;16.60;57.90;;;;;;5005708;28;20596;-76
2022/05/28 09:44:59;;;;;;;5.10;1.50;;;16.40;55.80;;;;;;5010459;28;20420;-76
2022/05/28 09:47:47;;;;;;;8.50;1.63;;;16.20;55.90;;;;;;5004540;28;20485;-76
2022/05/28 09:50:43;;;;;;;6.53;1.57;;;16.00;57.60;;;;;;5010372;28;20453;-75
2022/05/28 09:56:40;;;;;;;7.63;1.73;;;15.70;57.50;;;;;;5002306;28;20492;-75
2022/05/28 09:59:34;;;;;;;7.63;1.50;;;15.40;57.90;;;;;;5008527;28;20486;-76
2022/05/28 10:02:23;;;;;;;10.10;1.73;;;15.40;62.50;;;;;;5007844;28;20567;-75
2022/05/28 10:05:11;;;;;;;3.83;1.47;;;15.80;61.50;;;;;;5016079;28;20981;-76
2022/05/28 10:08:09;;;;;;;5.17;1.23;;;16.20;55.90;;;;;;5007600;28;20515;-76
2022/05/28 10:10:57;;;;;;;5.50;1.40;;;16.40;54.90;;;;;;5005654;28;20458;-76
2022/05/28 10:13:45;;;;;;;11.40;1.70;;;16.40;55.70;;;;;;5003266;28;20988;-76
2022/05/28 10:16:37;;;;;;;12.27;2.57;;;16.40;53.00;;;;;;5004390;28;21005;-76
2022/05/28 10:19:28;;;;;;;3.93;1.63;;;16.20;52.50;;;;;;5006330;28;20459;-76
2022/05/28 10:22:18;;;;;;;4.83;1.50;;;16.10;56.80;;;;;;5004697;28;20986;-76
2022/05/28 10:25:10;;;;;;;5.40;1.50;;;16.10;55.10;;;;;;5008102;28;20452;-75
2022/05/28 10:27:57;;;;;;;7.80;1.60;;;16.10;60.80;;;;;;5009138;28;21057;-75
2022/05/28 10:30:45;;;;;;;6.13;1.80;;;16.10;62.50;;;;;;5007170;28;20408;-75
2022/05/28 10:33:31;;;;;;;9.40;1.93;;;16.00;57.90;;;;;;4994689;28;20451;-75
2022/05/28 10:36:18;;;;;;;6.40;3.30;;;16.30;58.80;;;;;;5007666;28;20576;-74
2022/05/28 10:39:10;;;;;;;8.87;1.53;;;16.70;57.50;;;;;;5011070;28;20436;-74
2022/05/28 10:41:57;;;;;;;2.03;1.00;;;17.10;54.50;;;;;;5008577;28;20504;-74
2022/05/28 10:44:44;;;;;;;7.20;2.70;;;17.20;48.90;;;;;;5008594;28;20492;-75
2022/05/28 10:47:53;;;;;;;8.33;1.57;;;17.00;49.90;;;;;;5010737;28;20429;-74
2022/05/28 10:50:48;;;;;;;4.07;1.83;;;16.90;50.00;;;;;;5001377;28;20424;-75
2022/05/28 10:53:53;;;;;;;6.00;1.20;;;16.90;53.80;;;;;;5006593;28;20481;-75
2022/05/28 10:56:52;;;;;;;3.60;1.60;;;16.90;55.80;;;;;;5003287;28;20452;-75
2022/05/28 11:00:01;;;;;;;2.30;1.10;;;17.00;53.80;;;;;;5002256;28;20469;-75
2022/05/28 11:03:23;;;;;;;6.13;1.30;;;17.00;48.30;;;;;;4999746;28;20520;-75
2022/05/28 11:06:36;;;;;;;5.70;1.33;;;17.00;50.10;;;;;;5022012;28;20431;-75
2022/05/28 11:09:32;;;;;;;6.03;2.03;;;17.10;47.70;;;;;;5004738;28;20468;-75
2022/05/28 11:12:38;;;;;;;3.40;1.30;;;17.20;49.10;;;;;;5011821;28;20630;-75
2022/05/28 11:15:47;;;;;;;3.47;1.20;;;17.30;49.70;;;;;;5015309;28;20443;-75
2022/05/28 11:19:04;;;;;;;8.30;1.43;;;17.40;42.90;;;;;;5011010;28;20526;-75
2022/05/28 11:22:20;;;;;;;4.80;1.37;;;17.60;45.80;;;;;;4997674;28;20474;-75
2022/05/28 11:25:12;;;;;;;3.60;1.90;;;17.90;44.30;;;;;;5018773;28;20965;-75
2022/05/28 11:28:11;;;;;;;4.40;1.17;;;18.20;46.20;;;;;;5021596;28;20492;-75
2022/05/28 11:31:06;;;;;;;5.13;1.60;;;18.40;42.90;;;;;;5014679;28;20461;-76
2022/05/28 11:33:53;;;;;;;3.13;1.00;;;18.70;41.10;;;;;;5007914;28;20821;-75
2022/05/28 11:36:43;;;;;;;4.67;1.20;;;18.80;36.70;;;;;;4999509;28;20461;-74
2022/05/28 11:39:39;;;;;;;3.30;1.10;;;18.80;37.30;;;;;;5013812;28;20461;-74
2022/05/28 11:42:34;;;;;;;4.37;1.50;;;18.50;37.60;;;;;;5010610;28;20422;-74
2022/05/28 11:45:24;;;;;;;6.63;1.30;;;18.00;37.50;;;;;;5007474;28;20437;-74
2022/05/28 11:48:19;;;;;;;5.53;1.60;;;17.70;38.20;;;;;;5008610;28;20440;-74
2022/05/28 11:51:29;;;;;;;6.07;1.40;;;17.20;39.30;;;;;;5012397;28;20480;-74
2022/05/28 11:54:19;;;;;;;5.87;1.23;;;16.80;42.40;;;;;;5009211;28;20524;-74
2022/05/28 11:57:10;;;;;;;6.27;1.50;;;16.70;44.60;;;;;;5011272;28;21077;-74
2022/05/28 11:59:57;;;;;;;5.37;1.30;;;16.70;48.60;;;;;;5010567;28;20448;-74
2022/05/28 12:02:46;;;;;;;5.80;1.50;;;16.90;46.10;;;;;;5009380;28;20428;-74
2022/05/28 12:05:43;;;;;;;6.40;1.33;;;17.30;45.60;;;;;;5006728;28;20438;-74
2022/05/28 12:08:38;;;;;;;4.27;1.20;;;17.80;45.70;;;;;;5011027;28;20627;-74
2022/05/28 12:11:38;;;;;;;3.50;1.33;;;18.30;47.60;;;;;;5007331;28;20967;-75
2022/05/28 12:14:28;;;;;;;4.07;1.20;;;18.80;47.80;;;;;;5013136;28;20820;-74
2022/05/28 12:17:26;;;;;;;6.80;1.10;;;19.30;41.50;;;;;;5030185;28;20436;-75
2022/05/28 12:20:13;;;;;;;3.53;1.20;;;19.40;37.70;;;;;;5013331;28;20425;-74
2022/05/28 12:23:03;;;;;;;3.40;1.37;;;18.90;37.00;;;;;;5007757;28;20460;-75
2022/05/28 12:25:49;;;;;;;2.73;1.07;;;18.70;37.80;;;;;;5012691;28;20430;-74
2022/05/28 12:28:45;;;;;;;4.60;1.10;;;18.50;38.50;;;;;;5010809;28;20488;-74
2022/05/28 12:31:30;;;;;;;10.03;1.63;;;18.40;41.50;;;;;;5007872;28;20421;-74
2022/05/28 12:34:22;;;;;;;5.30;1.60;;;18.30;39.60;;;;;;5006393;28;20473;-74
2022/05/28 12:37:18;;;;;;;7.83;1.80;;;18.50;39.60;;;;;;5012149;28;20424;-74
2022/05/28 12:40:24;;;;;;;3.90;1.20;;;18.90;40.60;;;;;;5011068;28;20946;-74
2022/05/28 12:43:14;;;;;;;3.70;1.10;;;19.40;37.50;;;;;;5005159;28;20532;-74
2022/05/28 12:46:13;;;;;;;5.10;1.37;;;19.70;36.00;;;;;;5010998;28;20469;-74
2022/05/28 12:49:07;;;;;;;5.07;1.40;;;19.90;37.20;;;;;;5012052;28;20477;-74
2022/05/28 12:52:21;;;;;;;4.00;1.07;;;19.40;31.10;;;;;;5010379;28;20565;-74
2022/05/28 12:55:29;;;;;;;4.90;1.23;;;19.20;35.00;;;;;;5016464;28;20472;-74
2022/05/28 12:58:28;;;;;;;4.13;1.30;;;19.40;31.60;;;;;;5003781;28;20545;-75
2022/05/28 13:01:21;;;;;;;4.23;1.10;;;19.40;33.40;;;;;;5004993;28;20422;-74
2022/05/28 13:04:14;;;;;;;3.80;1.20;;;19.40;33.20;;;;;;5014551;28;20441;-74
2022/05/28 13:07:01;;;;;;;7.97;1.13;;;18.80;33.20;;;;;;5010169;28;20477;-74
2022/05/28 13:09:49;;;;;;;9.33;1.27;;;18.70;35.60;;;;;;5011288;28;20575;-74
2022/05/28 13:12:46;;;;;;;8.43;1.40;;;18.70;37.10;;;;;;5003541;28;20527;-75
2022/05/28 13:16:06;;;;;;;3.60;1.40;;;18.50;35.20;;;;;;5004688;28;20477;-74
2022/05/28 13:19:24;;;;;;;3.97;1.40;;;18.20;35.80;;;;;;5004459;28;20504;-74
2022/05/28 13:22:23;;;;;;;3.00;0.90;;;18.10;37.50;;;;;;5006789;28;20922;-74
2022/05/28 13:25:24;;;;;;;3.60;1.00;;;17.90;37.40;;;;;;5003411;28;20518;-74
2022/05/28 13:28:52;;;;;;;6.10;1.47;;;18.00;38.40;;;;;;5010121;28;20461;-74
2022/05/28 13:31:41;;;;;;;4.80;1.23;;;17.90;37.30;;;;;;5004822;28;20469;-74
2022/05/28 13:34:29;;;;;;;4.03;1.20;;;18.20;37.20;;;;;;5008383;28;20527;-74
2022/05/28 13:37:20;;;;;;;2.23;0.83;;;18.80;35.70;;;;;;5008782;28;20452;-74
2022/05/28 13:40:07;;;;;;;2.93;1.20;;;19.20;35.80;;;;;;5009410;28;22962;-74
2022/05/28 13:42:55;;;;;;;4.03;1.27;;;19.30;36.20;;;;;;5004790;28;20864;-74
2022/05/28 13:45:45;;;;;;;3.00;1.10;;;19.30;35.80;;;;;;5009963;28;20652;-74
2022/05/28 13:48:31;;;;;;;6.50;1.43;;;19.00;33.90;;;;;;5000612;28;20528;-74
2022/05/28 13:51:18;;;;;;;5.33;1.83;;;18.80;32.40;;;;;;5003940;28;20524;-74
2022/05/28 13:54:11;;;;;;;5.17;1.20;;;18.70;32.40;;;;;;5010424;28;20547;-74
2022/05/28 13:56:59;;;;;;;6.53;1.30;;;18.50;31.50;;;;;;5004398;28;20994;-74
2022/05/28 13:59:55;;;;;;;8.20;1.13;;;18.40;33.50;;;;;;5007325;28;20443;-75
2022/05/28 14:02:53;;;;;;;4.10;1.00;;;18.20;32.90;;;;;;5011026;28;20461;-74
2022/05/28 14:05:42;;;;;;;4.13;1.20;;;18.10;33.60;;;;;;5010662;28;20456;-74
2022/05/28 14:08:32;;;;;;;2.70;1.03;;;18.00;33.50;;;;;;5000872;28;20498;-74
2022/05/28 14:11:22;;;;;;;5.20;1.43;;;18.50;35.50;;;;;;5004907;28;20532;-74
2022/05/28 14:14:18;;;;;;;2.93;1.27;;;19.00;31.90;;;;;;5009912;28;20807;-74
2022/05/28 14:17:06;;;;;;;2.93;1.03;;;19.50;34.50;;;;;;4999967;28;20717;-74
2022/05/28 14:19:57;;;;;;;10.20;1.40;;;20.00;32.10;;;;;;5006507;28;20918;-72
2022/05/28 14:22:47;;;;;;;3.93;1.23;;;20.40;32.10;;;;;;5006744;28;20460;-72
2022/05/28 14:25:37;;;;;;;5.83;1.50;;;20.60;33.10;;;;;;4999770;28;22016;-72
2022/05/28 14:28:25;;;;;;;2.57;1.03;;;20.50;29.50;;;;;;5003130;28;20500;-72
2022/05/28 14:31:13;;;;;;;3.80;1.23;;;20.40;32.40;;;;;;5000409;28;21070;-72
2022/05/28 14:33:59;;;;;;;4.63;1.50;;;20.60;31.10;;;;;;5013212;28;20544;-72
2022/05/28 14:36:53;;;;;;;2.60;1.07;;;20.70;31.50;;;;;;5009722;28;20417;-72
2022/05/28 14:39:47;;;;;;;2.93;1.20;;;20.30;29.90;;;;;;5009209;28;21268;-72
2022/05/28 14:42:39;;;;;;;3.33;1.40;;;20.20;30.60;;;;;;5002079;28;20458;-71
2022/05/28 14:45:27;;;;;;;5.23;1.10;;;19.90;30.40;;;;;;5007725;28;20507;-74
2022/05/28 14:48:20;;;;;;;2.20;1.00;;;20.00;31.00;;;;;;5000850;28;20477;-71
2022/05/28 14:51:06;;;;;;;2.93;1.30;;;20.30;30.90;;;;;;5007893;28;20453;-71